Time;durP1;ratioP1;P1;durP2;ratioP2;P2;SDS_P1;SDS_P2;PMS_P1;PMS_P2;Temp;Humidity;BMP_temperature;BMP_pressure;BME280_temperature;BME280_humidity;BME280_pressure;Samples;Min_cycle;Max_cycle;Signal;HPM_P1;HPM_P2
2021/03/18 00:01:23;;;;;;;19.13;8.43;;;1.00;99.90;;;;;;5015554;28;20210;-89
2021/03/18 00:03:50;;;;;;;20.33;8.97;;;1.20;99.90;;;;;;5035400;28;20568;-89
2021/03/18 00:06:16;;;;;;;20.00;7.83;;;2.10;99.90;;;;;;5034557;28;20180;-89
2021/03/18 00:08:44;;;;;;;21.93;9.30;;;1.50;99.90;;;;;;5035676;28;20183;-88
2021/03/18 00:11:14;;;;;;;16.17;7.67;;;2.00;99.90;;;;;;5034424;28;20258;-89
2021/03/18 00:13:42;;;;;;;18.13;8.77;;;1.00;99.90;;;;;;5035373;28;20295;-84
2021/03/18 00:16:08;;;;;;;15.40;8.07;;;1.00;99.90;;;;;;5018317;28;20189;-89
2021/03/18 00:18:39;;;;;;;17.43;8.53;;;1.40;99.90;;;;;;5034415;28;20192;-89
2021/03/18 00:21:05;;;;;;;21.63;10.10;;;1.00;99.90;;;;;;5035344;28;20173;-89
2021/03/18 00:23:32;;;;;;;21.33;8.67;;;0.90;99.90;;;;;;5034407;28;20587;-89
2021/03/18 00:25:59;;;;;;;18.60;8.50;;;1.30;99.90;;;;;;5035590;28;20528;-90
2021/03/18 00:28:25;;;;;;;15.50;8.33;;;1.20;99.90;;;;;;5037733;28;20181;-88
2021/03/18 00:30:51;;;;;;;16.23;7.80;;;1.70;99.90;;;;;;5044746;28;20211;-89
2021/03/18 00:33:16;;;;;;;14.63;8.43;;;2.20;99.90;;;;;;5047102;28;20227;-86
2021/03/18 00:35:43;;;;;;;13.17;8.00;;;1.00;99.90;;;;;;5045011;28;20172;-88
2021/03/18 00:38:09;;;;;;;19.47;8.23;;;0.90;99.90;;;;;;5042100;28;20183;-90
2021/03/18 00:40:39;;;;;;;20.13;9.80;;;1.00;99.90;;;;;;5035048;28;20212;-91
2021/03/18 00:43:09;;;;;;;20.43;10.10;;;1.50;99.90;;;;;;5037271;28;20196;-88
2021/03/18 00:45:37;;;;;;;21.57;9.87;;;0.90;99.90;;;;;;5042879;28;20226;-88
2021/03/18 00:48:05;;;;;;;19.77;8.73;;;0.90;99.90;;;;;;5042532;28;20180;-87
2021/03/18 00:50:52;;;;;;;21.83;10.53;;;0.90;99.90;;;;;;5043590;28;20204;-87
2021/03/18 00:53:24;;;;;;;18.30;8.63;;;1.00;99.90;;;;;;5035743;28;20200;-91
2021/03/18 00:55:51;;;;;;;15.17;8.03;;;0.90;99.90;;;;;;5035295;28;20264;-90
2021/03/18 00:58:17;;;;;;;13.97;7.50;;;0.90;99.90;;;;;;5035383;28;20180;-91
2021/03/18 01:00:58;;;;;;;14.97;7.83;;;0.80;99.90;;;;;;5034257;28;20188;-91
2021/03/18 01:03:25;;;;;;;16.07;8.83;;;1.40;99.90;;;;;;5035732;28;20232;-90
2021/03/18 01:06:16;;;;;;;16.80;8.10;;;0.90;99.90;;;;;;5038382;28;20616;-90
2021/03/18 01:08:42;;;;;;;19.10;8.73;;;0.70;99.90;;;;;;5033629;28;20188;-89
2021/03/18 01:11:12;;;;;;;20.50;9.17;;;1.10;99.90;;;;;;5033905;28;20198;-89
2021/03/18 01:13:43;;;;;;;22.83;10.60;;;0.60;99.90;;;;;;5033896;28;20247;-88
2021/03/18 01:16:20;;;;;;;16.93;10.00;;;1.80;99.90;;;;;;5033151;28;21033;-88
2021/03/18 01:18:55;;;;;;;18.53;9.60;;;0.50;99.90;;;;;;5034637;28;20253;-88
2021/03/18 01:21:24;;;;;;;18.03;8.27;;;1.40;99.90;;;;;;5034945;28;20626;-89
2021/03/18 01:23:50;;;;;;;19.20;9.37;;;0.50;99.90;;;;;;5033021;28;20212;-85
2021/03/18 01:26:16;;;;;;;20.97;9.20;;;0.40;99.90;;;;;;5033565;28;20272;-89
2021/03/18 01:28:42;;;;;;;16.90;8.93;;;0.90;99.90;;;;;;5032963;28;20194;-89
2021/03/18 01:31:08;;;;;;;17.80;8.97;;;1.40;99.90;;;;;;5032726;28;20188;-89
2021/03/18 01:33:35;;;;;;;12.57;7.60;;;0.30;99.90;;;;;;5033011;28;20665;-89
2021/03/18 01:36:01;;;;;;;16.20;9.47;;;0.40;99.90;;;;;;5033915;28;20665;-89
2021/03/18 01:38:30;;;;;;;15.07;8.27;;;0.70;99.90;;;;;;5033012;28;20180;-88
2021/03/18 01:40:57;;;;;;;16.43;9.90;;;0.10;99.90;;;;;;5032598;28;20180;-88
2021/03/18 01:43:24;;;;;;;16.37;9.40;;;0.50;99.90;;;;;;5016366;28;20194;-87
2021/03/18 01:45:50;;;;;;;19.37;9.63;;;1.50;99.90;;;;;;5032792;28;20207;-88
2021/03/18 01:48:16;;;;;;;17.63;10.40;;;0.50;99.90;;;;;;5032626;28;20217;-87
2021/03/18 01:50:42;;;;;;;19.07;10.10;;;0.00;99.90;;;;;;5033608;28;20236;-87
2021/03/18 01:53:09;;;;;;;18.13;9.07;;;1.40;99.90;;;;;;5032403;28;20292;-87
2021/03/18 01:55:41;;;;;;;17.87;9.57;;;0.80;99.90;;;;;;5033910;28;20277;-88
2021/03/18 01:58:09;;;;;;;23.27;9.13;;;-0.10;99.90;;;;;;5033599;28;20211;-88
2021/03/18 02:00:37;;;;;;;22.10;9.93;;;0.10;99.90;;;;;;5033463;28;20184;-88
2021/03/18 02:03:03;;;;;;;19.10;9.77;;;-0.20;99.90;;;;;;5032863;28;20182;-89
2021/03/18 02:05:29;;;;;;;16.47;8.87;;;-0.20;99.90;;;;;;5032449;28;20655;-89
2021/03/18 02:07:56;;;;;;;20.67;10.27;;;0.60;99.90;;;;;;5032245;28;20187;-89
2021/03/18 02:10:27;;;;;;;17.03;8.93;;;-0.10;99.90;;;;;;5033570;28;20166;-88
2021/03/18 02:12:53;;;;;;;17.30;9.60;;;-0.40;99.90;;;;;;5016520;28;20218;-88
2021/03/18 02:15:22;;;;;;;17.50;9.43;;;-0.40;99.90;;;;;;5033130;28;20183;-88
2021/03/18 02:18:09;;;;;;;15.67;9.40;;;-0.40;99.90;;;;;;5033528;28;20203;-89
2021/03/18 02:20:46;;;;;;;20.67;9.73;;;-0.40;99.90;;;;;;5032354;28;20631;-88
2021/03/18 02:23:50;;;;;;;17.87;10.07;;;-0.20;99.90;;;;;;5032811;28;20241;-88
2021/03/18 02:26:43;;;;;;;18.87;9.70;;;-0.50;99.90;;;;;;5031921;28;20225;-89
2021/03/18 02:29:30;;;;;;;19.77;9.70;;;-0.50;99.90;;;;;;5033136;28;20179;-88
2021/03/18 02:32:16;;;;;;;18.13;10.67;;;-0.50;99.90;;;;;;5033386;28;20190;-88
2021/03/18 02:35:09;;;;;;;18.10;10.70;;;-0.60;99.90;;;;;;5033755;28;20202;-89
2021/03/18 02:37:38;;;;;;;19.67;9.43;;;-0.60;99.90;;;;;;5032408;28;20265;-90
2021/03/18 02:40:16;;;;;;;19.00;10.43;;;-0.60;99.90;;;;;;5031899;28;20237;-89
2021/03/18 02:42:44;;;;;;;21.87;9.57;;;-0.60;99.90;;;;;;5033561;28;20178;-89
2021/03/18 02:45:12;;;;;;;13.93;8.53;;;-0.70;99.90;;;;;;5032500;28;20574;-90
2021/03/18 02:47:39;;;;;;;17.43;9.53;;;-0.60;99.90;;;;;;5015550;28;20186;-89
2021/03/18 02:50:08;;;;;;;17.93;9.27;;;-0.40;99.90;;;;;;5032858;28;20178;-89
2021/03/18 02:52:34;;;;;;;18.50;9.47;;;-0.70;99.90;;;;;;5031801;28;20726;-89
2021/03/18 02:55:03;;;;;;;16.07;9.17;;;-0.30;99.90;;;;;;5031795;28;20218;-89
2021/03/18 02:57:30;;;;;;;16.27;8.93;;;-0.30;99.90;;;;;;5032935;28;20183;-90
2021/03/18 02:59:59;;;;;;;18.87;9.20;;;0.70;99.90;;;;;;5033653;28;20253;-89
2021/03/18 03:02:27;;;;;;;20.53;9.57;;;-0.90;99.90;;;;;;5032736;28;20179;-93
2021/03/18 03:04:54;;;;;;;18.30;9.93;;;-0.40;99.90;;;;;;5033334;28;20221;-92
2021/03/18 03:07:23;;;;;;;17.10;10.63;;;0.00;99.90;;;;;;5032829;28;20260;-91
2021/03/18 03:09:50;;;;;;;17.67;9.57;;;0.40;99.90;;;;;;5033035;28;20181;-92
2021/03/18 03:12:19;;;;;;;14.33;8.93;;;-0.90;99.90;;;;;;5031825;28;20184;-90
2021/03/18 03:14:46;;;;;;;17.53;9.37;;;-0.40;99.90;;;;;;5032800;28;20739;-89
2021/03/18 03:17:15;;;;;;;18.67;11.07;;;-0.80;99.90;;;;;;5031250;28;20181;-90
2021/03/18 03:19:44;;;;;;;20.27;9.47;;;-0.50;99.90;;;;;;5032309;28;20223;-90
2021/03/18 03:22:10;;;;;;;20.60;10.93;;;-0.50;99.90;;;;;;5031346;28;20226;-91
2021/03/18 03:24:37;;;;;;;18.70;8.80;;;-0.50;99.90;;;;;;5033078;28;20214;-91
2021/03/18 03:27:06;;;;;;;21.23;10.67;;;-1.00;99.90;;;;;;5031622;28;20273;-91
2021/03/18 03:29:34;;;;;;;18.37;9.90;;;-1.00;99.90;;;;;;5031586;28;20565;-90
2021/03/18 03:32:03;;;;;;;19.37;10.20;;;-1.00;99.90;;;;;;5031499;28;20185;-91
2021/03/18 03:34:29;;;;;;;27.23;12.63;;;-1.00;99.90;;;;;;5032549;28;20269;-91
2021/03/18 03:36:55;;;;;;;23.77;11.23;;;-0.20;99.90;;;;;;5036693;28;20187;-91
2021/03/18 03:39:21;;;;;;;22.13;9.87;;;-1.10;99.90;;;;;;5035031;28;20630;-91
2021/03/18 03:41:47;;;;;;;20.37;9.90;;;-0.30;99.90;;;;;;5036527;28;20173;-91
2021/03/18 03:44:13;;;;;;;20.83;10.23;;;-1.10;99.90;;;;;;5036045;28;20217;-90
2021/03/18 03:46:39;;;;;;;17.27;8.70;;;-0.90;99.90;;;;;;5002694;28;20630;-91
2021/03/18 03:49:06;;;;;;;21.00;8.93;;;-0.40;99.90;;;;;;5035267;28;20231;-91
2021/03/18 03:51:49;;;;;;;17.50;9.60;;;-0.60;99.90;;;;;;5035715;28;20188;-90
2021/03/18 03:54:16;;;;;;;19.13;8.80;;;-1.10;99.90;;;;;;5035993;28;20238;-91
2021/03/18 03:57:11;;;;;;;22.33;9.73;;;-0.50;99.90;;;;;;5034883;28;20527;-91
2021/03/18 03:59:40;;;;;;;21.63;11.87;;;-1.20;99.90;;;;;;5018400;28;20655;-91
2021/03/18 04:02:08;;;;;;;20.80;8.83;;;-1.20;99.90;;;;;;5038309;28;20186;-91
2021/03/18 04:04:40;;;;;;;19.70;9.70;;;-1.00;99.90;;;;;;5024914;28;20265;-90
2021/03/18 04:07:11;;;;;;;22.10;10.70;;;-1.30;99.90;;;;;;5037041;28;20165;-90
2021/03/18 04:09:37;;;;;;;20.50;8.87;;;-1.30;99.90;;;;;;5035531;28;20172;-91
2021/03/18 04:12:05;;;;;;;17.17;9.23;;;-0.50;99.90;;;;;;5036028;28;20180;-91
2021/03/18 04:14:34;;;;;;;16.83;8.97;;;-1.30;99.90;;;;;;5035291;28;20695;-89
2021/03/18 04:17:07;;;;;;;20.33;9.30;;;-1.00;99.90;;;;;;5034589;28;20633;-90
2021/03/18 04:19:33;;;;;;;21.50;9.40;;;-1.40;99.90;;;;;;5035547;28;20664;-90
2021/03/18 04:22:00;;;;;;;17.80;9.60;;;-0.70;99.90;;;;;;5035416;28;20172;-90
2021/03/18 04:24:27;;;;;;;18.33;9.60;;;-1.40;99.90;;;;;;5034179;28;20214;-89
2021/03/18 04:26:54;;;;;;;17.50;8.80;;;-1.40;99.90;;;;;;5035672;28;20180;-91
2021/03/18 04:29:21;;;;;;;20.33;10.40;;;-1.40;99.90;;;;;;5034066;28;20637;-90
2021/03/18 04:31:47;;;;;;;16.90;8.40;;;-1.10;99.90;;;;;;5035490;28;20195;-90
2021/03/18 04:34:18;;;;;;;16.60;9.67;;;-1.40;99.90;;;;;;5035187;28;20259;-88
2021/03/18 04:36:44;;;;;;;17.83;9.20;;;-1.50;99.90;;;;;;5035319;28;20617;-87
2021/03/18 04:39:12;;;;;;;16.17;7.97;;;-1.40;99.90;;;;;;5035294;28;20181;-88
2021/03/18 04:41:38;;;;;;;15.37;7.67;;;-0.70;99.90;;;;;;5035254;28;20270;-87
2021/03/18 04:44:05;;;;;;;19.67;8.40;;;-1.50;99.90;;;;;;5035026;28;20327;-87
2021/03/18 04:46:32;;;;;;;22.07;9.27;;;-1.50;99.90;;;;;;5034886;28;20614;-87
2021/03/18 04:49:00;;;;;;;15.20;8.07;;;-1.20;99.90;;;;;;5029681;28;20275;-85
2021/03/18 04:51:26;;;;;;;16.63;8.33;;;-0.80;99.90;;;;;;5026188;28;20176;-88
2021/03/18 04:53:53;;;;;;;13.83;7.97;;;-0.80;99.90;;;;;;5031751;28;20251;-88
2021/03/18 04:56:20;;;;;;;19.17;8.90;;;-0.30;99.90;;;;;;5032254;28;20194;-85
2021/03/18 04:58:47;;;;;;;18.30;7.97;;;-1.50;99.90;;;;;;5031911;28;20227;-87
2021/03/18 05:01:13;;;;;;;20.63;8.57;;;-1.10;99.90;;;;;;5048260;28;20187;-86
2021/03/18 05:03:41;;;;;;;16.27;8.73;;;-1.50;99.90;;;;;;5031096;28;20229;-86
2021/03/18 05:06:08;;;;;;;22.47;8.47;;;-1.50;99.90;;;;;;5033291;28;20185;-88
2021/03/18 05:08:35;;;;;;;13.90;6.90;;;-0.70;99.90;;;;;;5033545;28;20271;-88
2021/03/18 05:11:02;;;;;;;18.53;8.87;;;-0.50;99.90;;;;;;5032959;28;20637;-88
2021/03/18 05:13:29;;;;;;;25.23;9.23;;;-1.40;99.90;;;;;;5048281;28;20225;-87
2021/03/18 05:15:57;;;;;;;17.23;8.83;;;-1.40;99.90;;;;;;5048531;28;20180;-88
2021/03/18 05:18:24;;;;;;;30.17;11.43;;;-1.40;99.90;;;;;;5032962;28;20204;-87
2021/03/18 05:20:50;;;;;;;30.27;13.03;;;-1.40;99.90;;;;;;5032620;28;20180;-89
2021/03/18 05:23:17;;;;;;;24.90;10.37;;;-1.00;99.90;;;;;;5031545;28;20199;-89
2021/03/18 05:25:45;;;;;;;23.33;10.77;;;-1.30;99.90;;;;;;5032339;28;20202;-88
2021/03/18 05:28:11;;;;;;;22.83;9.93;;;-1.30;99.90;;;;;;5031797;28;20194;-87
2021/03/18 05:30:37;;;;;;;23.67;11.33;;;-1.10;99.90;;;;;;5031971;28;20222;-87
2021/03/18 05:33:04;;;;;;;23.17;11.10;;;-1.30;99.90;;;;;;5033143;28;20242;-88
2021/03/18 05:35:31;;;;;;;24.97;10.93;;;-1.30;99.90;;;;;;5032924;28;20178;-89
2021/03/18 05:37:58;;;;;;;20.33;10.43;;;-0.10;99.90;;;;;;5032663;28;20743;-89
2021/03/18 05:40:24;;;;;;;22.40;11.50;;;-0.30;99.90;;;;;;5032248;28;20657;-88
2021/03/18 05:42:50;;;;;;;18.80;9.77;;;0.40;99.90;;;;;;5030414;28;20204;-89
2021/03/18 05:45:18;;;;;;;19.47;9.97;;;-1.00;99.90;;;;;;5028461;28;20666;-89
2021/03/18 05:47:45;;;;;;;20.37;11.07;;;-1.30;99.90;;;;;;5031165;28;20272;-90
2021/03/18 05:50:14;;;;;;;16.93;8.53;;;-1.30;99.90;;;;;;5031286;28;20651;-89
2021/03/18 05:52:40;;;;;;;16.20;8.60;;;-1.20;99.90;;;;;;5033077;28;20191;-94
2021/03/18 05:55:07;;;;;;;17.83;10.40;;;-1.10;99.90;;;;;;5036328;28;20207;-91
2021/03/18 05:57:34;;;;;;;20.03;9.17;;;-1.00;99.90;;;;;;5035095;28;20204;-93
2021/03/18 06:00:02;;;;;;;28.20;9.47;;;-0.90;99.90;;;;;;5032672;28;20261;-91
2021/03/18 06:02:30;;;;;;;17.13;8.50;;;-1.00;99.90;;;;;;5048067;28;20282;-88
2021/03/18 06:04:56;;;;;;;16.37;9.20;;;-1.00;99.90;;;;;;5031385;28;20254;-91
2021/03/18 06:07:22;;;;;;;18.23;7.97;;;-0.40;99.90;;;;;;5049473;28;20191;-92
2021/03/18 06:09:47;;;;;;;16.20;7.60;;;-0.90;99.90;;;;;;5043297;28;20369;-90
2021/03/18 06:12:13;;;;;;;12.73;7.73;;;-0.50;99.90;;;;;;5048596;28;20335;-90
2021/03/18 06:14:39;;;;;;;15.83;9.23;;;-0.40;99.90;;;;;;5031544;28;20219;-90
2021/03/18 06:17:05;;;;;;;14.23;8.67;;;0.20;99.90;;;;;;5028841;28;20566;-90
2021/03/18 06:19:30;;;;;;;14.27;7.63;;;-0.80;99.90;;;;;;5025529;28;20240;-89
2021/03/18 06:21:58;;;;;;;12.73;7.23;;;-0.60;99.90;;;;;;5029598;28;20579;-89
2021/03/18 06:24:26;;;;;;;15.17;7.50;;;-0.60;99.90;;;;;;5026982;28;20196;-89
2021/03/18 06:26:53;;;;;;;12.70;7.27;;;-0.70;99.90;;;;;;5043461;28;20178;-89
2021/03/18 06:29:31;;;;;;;15.60;8.17;;;-0.60;99.90;;;;;;5030757;28;20231;-90
2021/03/18 06:32:01;;;;;;;10.77;6.37;;;-0.60;99.90;;;;;;5026323;28;20291;-87
2021/03/18 06:34:55;;;;;;;15.33;9.03;;;-0.70;99.90;;;;;;5031330;28;20235;-87
2021/03/18 06:37:47;;;;;;;22.50;9.80;;;-0.50;99.90;;;;;;5020007;28;20214;-89
2021/03/18 06:40:13;;;;;;;19.47;9.33;;;-0.50;99.90;;;;;;5029448;28;20220;-88
2021/03/18 06:43:02;;;;;;;23.07;10.57;;;-0.40;99.90;;;;;;5030419;28;20185;-89
2021/03/18 06:45:34;;;;;;;36.20;12.73;;;0.50;99.90;;;;;;5021856;28;20205;-86
2021/03/18 06:48:02;;;;;;;20.73;9.77;;;0.50;99.90;;;;;;5027911;28;20187;-85
2021/03/18 06:50:47;;;;;;;17.73;8.43;;;0.60;99.90;;;;;;5028923;28;20191;-85
2021/03/18 06:53:23;;;;;;;18.13;7.83;;;-0.50;99.90;;;;;;5029191;28;20287;-88
2021/03/18 06:55:50;;;;;;;14.80;7.30;;;0.90;99.90;;;;;;5028883;28;20204;-85
2021/03/18 06:58:16;;;;;;;36.00;13.37;;;-0.40;99.90;;;;;;5027916;28;20180;-85
2021/03/18 07:00:46;;;;;;;29.77;12.77;;;-0.10;99.90;;;;;;5028787;28;20191;-84
2021/03/18 07:03:33;;;;;;;25.93;10.07;;;0.50;99.90;;;;;;5025728;28;20229;-85
2021/03/18 07:06:00;;;;;;;18.83;8.03;;;-0.40;99.90;;;;;;5024426;28;20595;-85
2021/03/18 07:08:37;;;;;;;12.00;6.73;;;-0.50;99.90;;;;;;5029511;28;20645;-86
2021/03/18 07:11:18;;;;;;;16.03;7.17;;;-0.50;99.90;;;;;;5029956;28;20184;-86
2021/03/18 07:13:44;;;;;;;19.57;8.63;;;0.70;99.90;;;;;;5033289;28;20284;-85
2021/03/18 07:16:13;;;;;;;18.17;8.80;;;0.50;99.90;;;;;;5034471;28;20617;-84
2021/03/18 07:18:40;;;;;;;32.33;11.07;;;-0.20;99.90;;;;;;5033099;28;20218;-85
2021/03/18 07:21:13;;;;;;;26.97;9.93;;;0.40;99.90;;;;;;5032740;28;20188;-85
2021/03/18 07:23:46;;;;;;;24.20;8.10;;;0.50;99.90;;;;;;5034339;28;20188;-87
2021/03/18 07:26:38;;;;;;;13.70;7.50;;;-0.10;99.90;;;;;;5017594;28;20200;-84
2021/03/18 07:29:19;;;;;;;13.00;6.90;;;0.10;99.90;;;;;;5013270;28;20173;-87
2021/03/18 07:31:45;;;;;;;15.90;7.80;;;0.10;99.90;;;;;;5014912;28;20328;-86
2021/03/18 07:34:11;;;;;;;13.40;7.20;;;1.50;99.90;;;;;;5016016;28;20565;-86
2021/03/18 07:36:38;;;;;;;13.13;6.97;;;0.20;99.90;;;;;;5015855;28;20177;-86
2021/03/18 07:39:08;;;;;;;18.13;7.60;;;0.20;99.90;;;;;;4997581;28;20653;-86
2021/03/18 07:41:36;;;;;;;19.17;7.97;;;0.30;99.90;;;;;;5013750;28;20183;-85
2021/03/18 07:44:02;;;;;;;9.53;6.40;;;0.60;99.90;;;;;;5013986;28;20195;-85
2021/03/18 07:46:30;;;;;;;11.07;7.17;;;0.60;99.90;;;;;;5014828;28;20181;-86
2021/03/18 07:49:03;;;;;;;12.40;6.00;;;0.60;99.90;;;;;;5022423;28;20188;-86
2021/03/18 07:51:31;;;;;;;33.20;14.63;;;0.60;99.90;;;;;;5032775;28;20595;-87
2021/03/18 07:53:59;;;;;;;14.00;5.83;;;1.60;99.90;;;;;;5035066;28;20585;-87
2021/03/18 07:56:25;;;;;;;13.37;7.67;;;2.00;99.90;;;;;;5035333;28;20178;-87
2021/03/18 07:58:52;;;;;;;22.40;9.17;;;0.90;99.90;;;;;;5035236;28;20173;-87
2021/03/18 08:01:30;;;;;;;19.53;8.83;;;1.00;99.90;;;;;;5034276;28;20274;-85
2021/03/18 08:03:57;;;;;;;11.03;5.80;;;1.60;99.90;;;;;;5033434;28;20377;-85
2021/03/18 08:06:45;;;;;;;12.90;5.07;;;1.30;99.90;;;;;;5033896;28;20176;-85
2021/03/18 08:09:12;;;;;;;9.70;5.30;;;1.30;99.90;;;;;;5035587;28;20206;-86
2021/03/18 08:11:43;;;;;;;8.17;5.63;;;1.10;99.90;;;;;;5035211;28;20187;-85
2021/03/18 08:14:21;;;;;;;10.70;5.40;;;1.70;99.90;;;;;;5034889;28;20254;-85
2021/03/18 08:16:46;;;;;;;7.47;4.90;;;1.50;99.90;;;;;;5034874;28;20169;-86
2021/03/18 08:19:14;;;;;;;10.40;6.00;;;1.80;99.90;;;;;;5035078;28;20180;-86
2021/03/18 08:21:47;;;;;;;9.57;5.50;;;1.10;99.90;;;;;;5024899;28;20186;-85
2021/03/18 08:24:32;;;;;;;10.77;5.83;;;1.20;99.90;;;;;;5022398;28;20179;-84
2021/03/18 08:27:02;;;;;;;15.17;6.03;;;1.40;99.90;;;;;;5023584;28;20196;-86
2021/03/18 08:30:00;;;;;;;25.20;9.93;;;2.80;99.90;;;;;;5026192;28;20239;-85
2021/03/18 08:32:27;;;;;;;7.60;5.30;;;1.80;99.90;;;;;;5015631;28;20251;-85
2021/03/18 08:35:06;;;;;;;11.73;5.37;;;1.60;99.90;;;;;;5023211;28;20220;-84
2021/03/18 08:37:43;;;;;;;9.43;6.07;;;1.50;99.90;;;;;;5024037;28;20205;-86
2021/03/18 08:40:20;;;;;;;6.97;4.43;;;1.70;99.90;;;;;;5024337;28;20185;-89
2021/03/18 08:42:51;;;;;;;11.50;5.80;;;1.80;99.90;;;;;;5032332;28;20637;-86
2021/03/18 08:45:19;;;;;;;9.17;5.70;;;1.50;99.90;;;;;;5026748;28;20173;-87
2021/03/18 08:47:47;;;;;;;9.27;5.13;;;1.50;99.90;;;;;;5022868;28;20191;-87
2021/03/18 08:50:25;;;;;;;10.37;5.57;;;2.40;99.90;;;;;;5020940;28;20260;-87
2021/03/18 08:52:56;;;;;;;10.73;5.70;;;2.30;99.90;;;;;;5014118;28;20185;-85
2021/03/18 08:55:38;;;;;;;9.50;5.63;;;1.60;99.90;;;;;;5018482;28;20178;-87
2021/03/18 08:58:05;;;;;;;7.07;4.97;;;1.70;99.90;;;;;;5031249;28;20212;-87
2021/03/18 09:00:32;;;;;;;8.33;4.97;;;1.90;99.90;;;;;;5030896;28;20188;-87
2021/03/18 09:02:58;;;;;;;11.57;6.37;;;1.90;99.90;;;;;;5030634;28;20187;-86
2021/03/18 09:05:24;;;;;;;11.07;4.60;;;1.90;99.90;;;;;;5031213;28;20545;-86
2021/03/18 09:08:08;;;;;;;9.17;5.50;;;2.00;99.90;;;;;;5031817;28;20173;-87
2021/03/18 09:10:35;;;;;;;8.37;4.37;;;2.10;99.90;;;;;;5032865;28;20161;-85
2021/03/18 09:13:14;;;;;;;7.17;4.60;;;2.30;99.90;;;;;;5032440;28;20176;-85
2021/03/18 09:15:42;;;;;;;7.20;4.33;;;2.40;99.90;;;;;;5032774;28;20189;-86
2021/03/18 09:18:24;;;;;;;6.73;4.67;;;2.50;99.90;;;;;;5034326;28;20188;-86
2021/03/18 09:20:54;;;;;;;5.10;3.47;;;2.50;99.90;;;;;;5034435;28;20157;-87
2021/03/18 09:23:26;;;;;;;6.27;3.60;;;2.40;99.90;;;;;;5033118;28;20212;-84
2021/03/18 09:25:56;;;;;;;10.17;3.97;;;2.40;99.90;;;;;;5034358;28;20177;-85
2021/03/18 09:28:21;;;;;;;8.40;4.93;;;2.50;99.90;;;;;;5032986;28;20192;-87
2021/03/18 09:30:54;;;;;;;8.87;3.70;;;2.60;99.90;;;;;;5032867;28;20186;-86
2021/03/18 09:33:37;;;;;;;4.40;3.30;;;2.80;99.90;;;;;;5033782;28;20210;-85
2021/03/18 09:36:19;;;;;;;4.23;3.40;;;2.70;99.90;;;;;;5034062;28;20201;-85
2021/03/18 09:39:10;;;;;;;5.83;3.93;;;2.80;99.90;;;;;;5032839;28;20271;-87
2021/03/18 09:41:42;;;;;;;7.13;4.10;;;3.40;99.90;;;;;;5034176;28;20572;-86
2021/03/18 09:44:14;;;;;;;6.47;3.83;;;3.20;99.90;;;;;;5032053;28;20546;-86
2021/03/18 09:46:42;;;;;;;8.57;3.67;;;2.40;99.90;;;;;;5032988;28;20207;-85
2021/03/18 09:49:08;;;;;;;4.10;3.20;;;3.30;99.90;;;;;;5030255;28;20196;-85
2021/03/18 09:51:36;;;;;;;4.53;3.30;;;2.80;96.30;;;;;;5030658;28;20683;-87
2021/03/18 09:54:05;;;;;;;7.00;3.17;;;2.60;95.40;;;;;;5031759;28;20215;-85
2021/03/18 09:56:39;;;;;;;5.03;3.73;;;2.30;96.80;;;;;;5030512;28;20676;-85
2021/03/18 09:59:07;;;;;;;6.97;3.83;;;2.20;99.20;;;;;;5031709;28;20260;-85
2021/03/18 10:01:33;;;;;;;5.90;4.10;;;2.20;99.90;;;;;;5031178;28;20181;-86
2021/03/18 10:03:59;;;;;;;4.90;3.80;;;2.10;99.90;;;;;;5031264;28;20235;-86
2021/03/18 10:06:37;;;;;;;6.93;5.17;;;2.20;99.90;;;;;;5017674;28;20273;-86
2021/03/18 10:09:21;;;;;;;6.27;3.97;;;2.30;99.30;;;;;;5010875;28;20689;-86
2021/03/18 10:11:49;;;;;;;7.50;3.90;;;2.20;99.90;;;;;;5012203;28;20196;-86
2021/03/18 10:14:17;;;;;;;4.83;3.73;;;2.20;99.90;;;;;;5012829;28;20197;-86
2021/03/18 10:16:45;;;;;;;5.73;4.20;;;2.30;99.90;;;;;;5013099;28;20177;-86
2021/03/18 10:19:11;;;;;;;6.40;3.37;;;2.20;99.90;;;;;;5011390;28;20544;-85
2021/03/18 10:21:38;;;;;;;6.97;4.20;;;2.10;99.90;;;;;;5013211;28;20189;-85
2021/03/18 10:24:06;;;;;;;5.60;3.97;;;2.20;99.90;;;;;;5011507;28;20195;-86
2021/03/18 10:26:32;;;;;;;9.33;4.00;;;2.00;99.90;;;;;;5013130;28;20185;-85
2021/03/18 10:29:03;;;;;;;5.30;4.07;;;2.80;99.90;;;;;;5011649;28;20180;-85
2021/03/18 10:31:29;;;;;;;6.73;3.43;;;2.70;99.90;;;;;;5011617;28;20642;-86
2021/03/18 10:33:54;;;;;;;8.23;4.00;;;1.90;99.90;;;;;;4997179;28;20216;-85
2021/03/18 10:36:37;;;;;;;8.63;4.20;;;3.60;99.90;;;;;;5025042;28;20271;-85
2021/03/18 10:39:06;;;;;;;7.87;4.00;;;2.20;99.90;;;;;;5031377;28;20257;-85
2021/03/18 10:41:33;;;;;;;8.17;4.83;;;2.50;99.90;;;;;;5031205;28;20180;-84
2021/03/18 10:43:59;;;;;;;8.40;3.60;;;2.20;99.90;;;;;;5032253;28;20850;-87
2021/03/18 10:46:31;;;;;;;6.07;4.43;;;2.30;99.90;;;;;;5032053;28;20208;-84
2021/03/18 10:48:57;;;;;;;5.93;3.47;;;2.20;99.90;;;;;;5032515;28;20181;-84
2021/03/18 10:51:23;;;;;;;9.47;3.37;;;3.10;99.90;;;;;;5031786;28;20176;-86
2021/03/18 10:53:51;;;;;;;5.60;3.30;;;2.20;99.90;;;;;;5030977;28;20300;-86
2021/03/18 10:56:25;;;;;;;4.47;3.10;;;2.10;99.90;;;;;;5031824;28;20693;-86
2021/03/18 10:58:51;;;;;;;5.47;3.97;;;2.80;99.90;;;;;;5031155;28;20245;-86
2021/03/18 11:01:22;;;;;;;8.47;3.60;;;2.10;99.90;;;;;;5030677;28;20191;-86
2021/03/18 11:03:48;;;;;;;3.90;3.13;;;3.00;99.90;;;;;;5031982;28;20386;-86
2021/03/18 11:06:22;;;;;;;4.90;3.43;;;2.30;99.90;;;;;;5031614;28;20173;-86
2021/03/18 11:08:53;;;;;;;6.47;3.57;;;1.90;99.90;;;;;;5012500;28;20182;-85
2021/03/18 11:11:21;;;;;;;5.23;3.17;;;1.90;99.90;;;;;;5010636;28;20176;-86
2021/03/18 11:13:47;;;;;;;4.40;3.13;;;3.30;99.90;;;;;;5012099;28;20205;-87
2021/03/18 11:16:23;;;;;;;6.43;3.60;;;2.90;99.90;;;;;;5010905;28;20512;-86
2021/03/18 11:18:56;;;;;;;7.87;4.00;;;2.60;99.90;;;;;;5012175;28;20166;-85
2021/03/18 11:21:30;;;;;;;13.20;3.77;;;1.80;99.90;;;;;;5011892;28;20176;-85
2021/03/18 11:24:07;;;;;;;8.03;3.50;;;2.30;99.90;;;;;;5012316;28;20186;-85
2021/03/18 11:26:34;;;;;;;6.97;3.43;;;1.90;99.90;;;;;;5011903;28;20564;-85
2021/03/18 11:29:13;;;;;;;13.50;3.53;;;3.00;99.90;;;;;;5012286;28;20181;-85
2021/03/18 11:31:41;;;;;;;9.93;4.00;;;2.00;99.90;;;;;;5012251;28;20165;-85
2021/03/18 11:34:17;;;;;;;6.63;4.23;;;2.30;99.90;;;;;;5012133;28;20201;-84
2021/03/18 11:36:44;;;;;;;11.53;4.20;;;2.10;99.90;;;;;;5012259;28;20630;-87
2021/03/18 11:39:10;;;;;;;4.07;3.50;;;2.20;99.90;;;;;;5012147;28;20182;-85
2021/03/18 11:41:36;;;;;;;9.43;4.77;;;2.30;99.90;;;;;;5012440;28;20174;-86
2021/03/18 11:44:02;;;;;;;5.63;3.97;;;2.30;99.90;;;;;;4995328;28;20186;-85
2021/03/18 11:46:28;;;;;;;5.37;2.77;;;2.40;99.90;;;;;;5011801;28;20190;-85
2021/03/18 11:48:54;;;;;;;6.17;3.53;;;2.50;99.10;;;;;;5011854;28;20192;-85
2021/03/18 11:51:21;;;;;;;4.37;3.00;;;2.80;99.50;;;;;;5011233;28;20211;-85
2021/03/18 11:53:47;;;;;;;3.60;2.90;;;2.50;95.70;;;;;;5012616;28;20210;-85
2021/03/18 11:56:13;;;;;;;7.27;3.17;;;2.80;93.40;;;;;;5011612;28;20186;-85
2021/03/18 11:58:39;;;;;;;7.20;3.20;;;3.10;92.70;;;;;;4997620;28;20265;-85
2021/03/18 12:01:05;;;;;;;4.30;3.47;;;2.60;92.60;;;;;;5015150;28;20228;-84
2021/03/18 12:03:31;;;;;;;10.10;3.13;;;2.10;94.20;;;;;;5015704;28;20680;-85
2021/03/18 12:05:56;;;;;;;6.33;3.57;;;2.50;95.30;;;;;;5021165;28;20185;-85
2021/03/18 12:08:22;;;;;;;4.60;3.53;;;2.10;95.40;;;;;;5018422;28;20195;-84
2021/03/18 12:10:48;;;;;;;5.30;3.47;;;2.20;95.30;;;;;;5024502;28;20259;-84
2021/03/18 12:13:13;;;;;;;13.77;4.07;;;2.90;93.30;;;;;;5024019;28;20583;-86
2021/03/18 12:15:39;;;;;;;5.83;4.13;;;2.20;92.90;;;;;;5023250;28;20200;-85
2021/03/18 12:18:05;;;;;;;7.27;3.80;;;2.20;93.10;;;;;;5025118;28;20656;-85
2021/03/18 12:20:31;;;;;;;3.77;3.13;;;2.20;91.50;;;;;;5022010;28;20181;-85
2021/03/18 12:22:57;;;;;;;5.93;2.70;;;2.20;90.50;;;;;;5024505;28;20185;-85
2021/03/18 12:25:23;;;;;;;5.87;4.17;;;2.20;90.20;;;;;;5024004;28;20189;-84
2021/03/18 12:27:49;;;;;;;4.60;2.97;;;2.30;90.40;;;;;;5024845;28;20190;-85
2021/03/18 12:30:17;;;;;;;5.57;3.30;;;2.40;87.80;;;;;;5024842;28;20191;-85
2021/03/18 12:32:44;;;;;;;8.97;3.83;;;2.50;85.60;;;;;;5006499;28;20639;-85
2021/03/18 12:35:12;;;;;;;7.63;3.10;;;3.50;86.70;;;;;;5024599;28;20200;-84
2021/03/18 12:37:38;;;;;;;5.93;3.00;;;2.50;85.00;;;;;;5023254;28;20170;-84
2021/03/18 12:40:05;;;;;;;4.60;3.30;;;2.50;88.20;;;;;;5024162;28;20181;-85
2021/03/18 12:42:31;;;;;;;4.60;3.10;;;2.50;88.10;;;;;;5023634;28;20173;-85
2021/03/18 12:44:57;;;;;;;7.33;3.40;;;2.70;87.60;;;;;;5025485;28;20699;-84
2021/03/18 12:47:23;;;;;;;7.90;2.90;;;2.60;87.30;;;;;;5024061;28;20300;-85
2021/03/18 12:49:49;;;;;;;5.10;3.17;;;2.60;85.50;;;;;;5023803;28;20213;-84
2021/03/18 12:52:14;;;;;;;5.90;3.63;;;3.30;82.90;;;;;;5025208;28;20186;-85
2021/03/18 12:54:41;;;;;;;6.03;3.60;;;2.50;84.00;;;;;;5023130;28;20238;-84
2021/03/18 12:57:07;;;;;;;3.77;3.10;;;2.50;84.40;;;;;;5006122;28;20187;-84
2021/03/18 12:59:33;;;;;;;3.90;2.63;;;2.50;84.00;;;;;;5024654;28;20288;-84